Jitra Kuala Nerang, Malaysia
Current Conditions -  °F | °C
As of 3:00 PM on Friday 24 Oct 2014 (Local Time) from WMKA Reporting Station
Broken Clouds Broken Clouds  
Wind Chill: 88°   Ceiling: 28000
Heat Index: 102°   Visibility: 6mi
Dew Point: 79°   Wind: 7mph
Humidity: 75%   Direction: 240°WSW
Pressure: 29.77"   Gusts: NA
Location:  6.26°N, 100.42°E
Report Text: WMKA 240700Z 24006KT 9999 SCT020 BKN280 31/26 Q1008
Loading
Personal Weather Stations






























Interactive Weather Map
Tropical Storm Tracking
New forecast layout! Learn more

10-Day Weather Forecast

Advertisements
Track Severe Weather on mobile